INGA4: Red River, Index, AR

Data processed at Fri Mar 09 2018 23:11


All information presented herein is the property of the government of the United States of America and may be revised or deleted at any time without prior notice.
Dissemination of this information without the expressed written consent of the Public Affairs Office, Tulsa District U.S. Army Corps of Engineers is strictly prohibited.
These data are gathered electronically and, as presented, have not undergone any form of quality control. These data are not guaranteed to be valid or correct.
Go to home page.
Go to station list.

Upstream stations:

Downstream station:
Previous Day
Next Day
Current Day
    
SHEF ID:       INGA4     Red River at Index, AR
STATION TYPE:  

               PRECIP     STAGE  RIV-FLOW  WTR-TEMP  BAT-LOAD
                   in        ft       cfs         F      volt
              Ccp-Rev   Ccp-Rev   Ccp-Rev   Ccp-Rev   Ccp-Rev
(US/Central)
03/07 00:00      0.00      9.29     36194     56.30     12.65
03/07 01:00      0.00      9.28     36148     56.12     12.65
03/07 02:00      0.00      9.26     36055     55.94     12.57
03/07 03:00      0.00      9.26     36055     55.94     12.57
03/07 04:00      0.00      9.27     36102     55.76     12.57
03/07 05:00      0.00      9.27     36102     55.40     12.57
03/07 06:00      0.00      9.27     36102     55.40     12.49
03/07 07:00      0.00      9.27     36102     55.22     12.49
03/07 08:00      0.00      9.25     36009     55.04     12.49
03/07 09:00      0.00      9.28     36148     55.04     12.49
03/07 10:00      0.00      9.27     36102     55.04     13.76
03/07 11:00      0.00      9.28     36148     55.04     13.53
03/07 12:00      0.00      9.27     36102     55.40     13.44
03/07 13:00      0.00      9.26     36055     55.58     13.29
03/07 14:00      0.00      9.28     36148     55.76     13.21
03/07 15:00      0.00      9.26     36055     55.94     13.13
03/07 16:00      0.00      9.28     36148     55.94     13.05
03/07 17:00      0.00      9.27     36102     55.94     12.97
03/07 18:00      0.00      9.29     36194     55.76     12.97
03/07 19:00      0.00      9.29     36194     55.58     12.81
03/07 20:00      0.00      9.29     36194     55.40     12.73
03/07 21:00      0.00      9.29     36194     55.22     12.73
03/07 22:00      0.00      9.29     36194     55.04     12.65
03/07 23:00      0.00      9.31     36287     54.86     12.65